createdAt,value
2019-03-27T00:01:40.779Z,101222.34
2019-03-27T00:10:55.157Z,101217.84
2019-03-27T00:32:54.102Z,101231.92
2019-03-27T00:36:10.617Z,101219.53
2019-03-27T00:46:47.596Z,101209.98
2019-03-27T00:50:47.128Z,101216.11
2019-03-27T00:53:47.561Z,101214.36
2019-03-27T01:08:03.958Z,101238.48
2019-03-27T01:11:50.920Z,101243.24
2019-03-27T01:15:21.358Z,101246.66
2019-03-27T01:17:56.829Z,101242.75
2019-03-27T01:20:31.932Z,101231.36
2019-03-27T01:23:05.517Z,101227.00
2019-03-27T01:25:43.590Z,101225.68
2019-03-27T01:28:23.313Z,101220.89
2019-03-27T01:31:18.085Z,101219.75
2019-03-27T01:34:17.957Z,101216.68
2019-03-27T01:37:02.228Z,101218.57
2019-03-27T01:39:42.677Z,101209.94
2019-03-27T01:42:27.841Z,101223.77
2019-03-27T01:45:22.578Z,101221.44
2019-03-27T01:48:00.404Z,101220.34
2019-03-27T01:50:55.644Z,101223.05
2019-03-27T01:54:06.615Z,101230.98
2019-03-27T01:56:56.011Z,101232.48
2019-03-27T02:02:53.286Z,101227.89
2019-03-27T02:05:35.574Z,101232.44
2019-03-27T02:08:08.464Z,101237.30
2019-03-27T02:11:00.029Z,101236.14
2019-03-27T02:13:56.973Z,101233.20
2019-03-27T02:16:39.656Z,101237.26
2019-03-27T02:19:49.668Z,101216.64
2019-03-27T02:22:39.814Z,101237.70
2019-03-27T02:25:41.757Z,101235.63
2019-03-27T02:28:53.361Z,101240.96
2019-03-27T02:31:54.789Z,101236.70
2019-03-27T02:34:58.216Z,101244.11
2019-03-27T02:41:26.165Z,101243.00
2019-03-27T02:47:52.604Z,101243.28
2019-03-27T02:50:59.736Z,101244.22
2019-03-27T02:58:30.302Z,101240.19
2019-03-27T03:01:10.356Z,101240.54
2019-03-27T03:08:07.366Z,101236.91
2019-03-27T03:11:40.284Z,101243.73
2019-03-27T03:14:28.641Z,101248.05
2019-03-27T03:17:04.098Z,101245.84
2019-03-27T03:19:40.760Z,101249.80
2019-03-27T03:22:19.934Z,101245.31
2019-03-27T03:25:11.925Z,101260.92
2019-03-27T03:28:02.117Z,101260.08
2019-03-27T03:30:38.100Z,101260.23
2019-03-27T03:33:24.719Z,101255.02
2019-03-27T03:36:04.451Z,101246.77
2019-03-27T03:38:40.847Z,101243.29
2019-03-27T03:41:15.889Z,101248.19
2019-03-27T03:43:52.764Z,101253.97
2019-03-27T03:47:08.316Z,101261.29
2019-03-27T03:50:15.958Z,101260.94
2019-03-27T03:53:33.105Z,101261.14
2019-03-27T03:56:30.164Z,101261.16
2019-03-27T03:59:55.895Z,101262.66
2019-03-27T04:06:11.853Z,101292.59
2019-03-27T04:08:56.681Z,101275.69
2019-03-27T04:11:57.866Z,101269.44
2019-03-27T04:15:08.554Z,101272.33
2019-03-27T04:17:41.681Z,101275.83
2019-03-27T04:20:15.633Z,101280.65
2019-03-27T04:22:46.576Z,101288.52
2019-03-27T04:25:17.640Z,101284.75
2019-03-27T04:27:50.976Z,101280.94
2019-03-27T04:30:27.131Z,101286.97
2019-03-27T04:33:07.894Z,101289.91
2019-03-27T04:35:52.678Z,101283.53
2019-03-27T04:38:40.191Z,101285.36
2019-03-27T04:41:49.130Z,101294.45
2019-03-27T04:44:37.682Z,101284.91
2019-03-27T04:47:32.413Z,101292.98
2019-03-27T04:50:46.794Z,101285.38
2019-03-27T04:53:22.899Z,101294.37
2019-03-27T04:55:56.424Z,101292.09
2019-03-27T04:58:31.110Z,101300.00
2019-03-27T05:01:03.453Z,101301.03
2019-03-27T05:03:41.272Z,101299.59
2019-03-27T05:06:27.882Z,101314.02
2019-03-27T05:09:05.205Z,101314.02
2019-03-27T05:11:46.969Z,101315.81
2019-03-27T05:14:18.940Z,101317.39
2019-03-27T05:16:51.231Z,101314.44
2019-03-27T05:19:22.340Z,101314.86
2019-03-27T05:21:56.121Z,101315.30
2019-03-27T05:24:28.278Z,101321.30
2019-03-27T05:27:00.621Z,101326.84
2019-03-27T05:29:34.695Z,101323.83
2019-03-27T05:32:11.367Z,101320.14
2019-03-27T05:34:49.632Z,101318.24
2019-03-27T05:37:20.872Z,101327.92
2019-03-27T05:39:52.320Z,101324.55
2019-03-27T05:42:26.049Z,101323.81
2019-03-27T05:45:06.995Z,101325.13
2019-03-27T05:47:41.845Z,101328.98
2019-03-27T05:50:13.891Z,101327.29
2019-03-27T05:53:06.348Z,101321.53
2019-03-27T05:55:47.111Z,101332.53
2019-03-27T05:58:31.763Z,101322.67
2019-03-27T06:01:03.721Z,101336.62
2019-03-27T06:03:36.363Z,101343.38
2019-03-27T06:06:27.277Z,101354.11
2019-03-27T06:09:02.503Z,101353.42
2019-03-27T06:11:38.329Z,101348.23
2019-03-27T06:14:10.141Z,101352.09
2019-03-27T06:16:41.814Z,101352.59
2019-03-27T06:19:18.072Z,101354.15
2019-03-27T06:21:50.787Z,101353.05
2019-03-27T06:24:23.530Z,101352.86
2019-03-27T06:26:57.847Z,101362.61
2019-03-27T06:29:29.199Z,101363.77
2019-03-27T06:32:01.965Z,101360.56
2019-03-27T06:34:37.933Z,101353.80
2019-03-27T06:37:11.647Z,101346.81
2019-03-27T06:39:45.471Z,101346.07
2019-03-27T06:42:18.606Z,101349.71
2019-03-27T06:45:01.867Z,101356.90
2019-03-27T06:47:39.323Z,101355.66
2019-03-27T06:50:12.670Z,101350.15
2019-03-27T06:52:45.719Z,101345.94
2019-03-27T06:55:25.423Z,101354.36
2019-03-27T06:58:01.445Z,101359.92
2019-03-27T07:00:49.959Z,101349.25
2019-03-27T07:03:29.131Z,101359.39
2019-03-27T07:06:08.353Z,101363.64
2019-03-27T07:08:53.977Z,101367.34
2019-03-27T07:11:38.718Z,101368.91
2019-03-27T07:18:00.604Z,101383.23
2019-03-27T07:20:41.444Z,101377.47
2019-03-27T07:23:27.687Z,101382.48
2019-03-27T07:26:18.252Z,101385.39
2019-03-27T07:29:10.493Z,101386.48
2019-03-27T07:31:51.222Z,101390.81
2019-03-27T07:34:33.240Z,101394.97
2019-03-27T07:37:50.281Z,101398.55
2019-03-27T07:40:35.455Z,101398.80
2019-03-27T07:44:06.783Z,101397.13
2019-03-27T07:47:27.585Z,101399.27
2019-03-27T07:50:43.482Z,101400.41
2019-03-27T07:53:18.277Z,101407.31
2019-03-27T07:56:16.753Z,101408.20
2019-03-27T07:58:49.023Z,101415.68
2019-03-27T08:01:32.185Z,101414.93
2019-03-27T08:04:23.732Z,101419.41
2019-03-27T08:07:26.976Z,101405.34
2019-03-27T08:10:18.573Z,101419.39
2019-03-27T08:13:17.295Z,101421.64
2019-03-27T08:16:04.302Z,101415.09
2019-03-27T08:18:46.087Z,101420.58
2019-03-27T08:22:17.284Z,101422.63
2019-03-27T08:25:25.414Z,101426.30
2019-03-27T08:35:42.466Z,101430.16
2019-03-27T08:38:29.393Z,101441.67
2019-03-27T08:48:52.491Z,101438.03
2019-03-27T08:51:38.282Z,101445.28
2019-03-27T08:54:54.943Z,101444.10
2019-03-27T09:01:19.988Z,101439.60
2019-03-27T09:04:20.392Z,101441.80
2019-03-27T09:08:09.614Z,101441.45
2019-03-27T09:11:04.598Z,101440.10
2019-03-27T09:13:43.648Z,101434.70
2019-03-27T09:16:48.249Z,101436.70
2019-03-27T09:19:36.108Z,101438.36
2019-03-27T09:22:34.784Z,101439.10
2019-03-27T09:25:26.746Z,101440.61
2019-03-27T09:28:05.779Z,101441.11
2019-03-27T09:30:40.958Z,101437.02
2019-03-27T09:33:18.257Z,101439.59
2019-03-27T09:35:59.396Z,101443.85
2019-03-27T09:38:37.121Z,101439.66
2019-03-27T09:41:28.443Z,101443.55
2019-03-27T09:44:24.676Z,101450.47
2019-03-27T09:47:06.902Z,101449.19
2019-03-27T09:57:32.298Z,101453.55
2019-03-27T10:00:25.745Z,101455.59
2019-03-27T10:04:13.563Z,101439.31
2019-03-27T10:07:19.402Z,101444.91
2019-03-27T10:09:55.303Z,101449.92
2019-03-27T10:12:30.223Z,101447.48
2019-03-27T10:15:18.174Z,101447.48
2019-03-27T10:17:58.219Z,101449.69
2019-03-27T10:20:59.388Z,101447.55
2019-03-27T10:30:28.617Z,101431.97
2019-03-27T10:33:31.514Z,101450.41
2019-03-27T10:36:15.788Z,101451.95
2019-03-27T10:39:09.395Z,101441.84
2019-03-27T10:42:21.700Z,101442.05
2019-03-27T10:45:25.519Z,101443.83
2019-03-27T10:48:30.838Z,101439.83
2019-03-27T10:51:22.154Z,101449.53
2019-03-27T10:54:07.901Z,101450.55
2019-03-27T10:57:47.152Z,101448.59
2019-03-27T11:02:53.703Z,101454.81
2019-03-27T11:05:54.514Z,101454.87
2019-03-27T11:08:58.220Z,101459.09
2019-03-27T11:11:54.786Z,101455.78
2019-03-27T11:14:38.582Z,101455.78
2019-03-27T11:17:39.563Z,101459.14
2019-03-27T11:20:35.260Z,101455.13
2019-03-27T11:23:42.954Z,101446.39
2019-03-27T11:26:30.426Z,101450.84
2019-03-27T11:29:26.109Z,101442.58
2019-03-27T11:32:15.810Z,101451.13
2019-03-27T11:35:15.345Z,101450.75
2019-03-27T11:38:05.666Z,101449.66
2019-03-27T11:40:52.024Z,101445.01
2019-03-27T11:43:59.776Z,101441.95
2019-03-27T11:46:52.303Z,101448.72
2019-03-27T11:49:43.435Z,101439.00
2019-03-27T11:52:53.338Z,101439.00
2019-03-27T11:55:50.347Z,101441.35
2019-03-27T11:58:45.321Z,101441.35
2019-03-27T12:02:25.588Z,101442.09
2019-03-27T12:12:42.292Z,101444.58
2019-03-27T12:16:02.427Z,101445.03
2019-03-27T12:18:34.678Z,101432.95
2019-03-27T12:21:30.645Z,101436.27
2019-03-27T12:24:14.398Z,101436.95
2019-03-27T12:26:56.462Z,101412.14
2019-03-27T12:33:08.296Z,101431.95
2019-03-27T12:36:00.821Z,101434.36
2019-03-27T12:38:47.804Z,101420.20
2019-03-27T12:44:54.140Z,101423.41
2019-03-27T12:47:59.957Z,101421.14
2019-03-27T12:50:53.150Z,101422.81
2019-03-27T12:53:40.102Z,101420.88
2019-03-27T12:59:25.754Z,101418.72
2019-03-27T13:05:20.690Z,101420.27
2019-03-27T13:08:16.279Z,101412.16
2019-03-27T13:14:13.871Z,101415.00
2019-03-27T13:23:26.491Z,101396.64
2019-03-27T13:29:32.702Z,101404.45
2019-03-27T13:32:17.047Z,101408.83
2019-03-27T13:35:00.449Z,101406.72
2019-03-27T13:37:50.109Z,101408.94
2019-03-27T13:40:52.593Z,101404.89
2019-03-27T13:43:55.142Z,101398.38
2019-03-27T13:46:59.983Z,101398.14
2019-03-27T13:49:57.301Z,101389.46
2019-03-27T13:52:44.341Z,101391.01
2019-03-27T13:55:27.627Z,101388.52
2019-03-27T13:58:15.252Z,101400.47
2019-03-27T14:01:29.347Z,101394.67
2019-03-27T14:04:32.540Z,101395.00
2019-03-27T14:07:30.655Z,101396.03
2019-03-27T14:10:30.209Z,101394.55
2019-03-27T14:13:24.988Z,101389.30
2019-03-27T14:16:42.806Z,101388.53
2019-03-27T14:22:34.662Z,101379.79
2019-03-27T14:25:37.484Z,101371.58
2019-03-27T14:28:34.375Z,101372.27
2019-03-27T14:31:42.440Z,101373.73
2019-03-27T14:34:46.452Z,101371.45
2019-03-27T14:37:44.151Z,101353.56
2019-03-27T14:40:59.378Z,101369.29
2019-03-27T14:43:52.136Z,101371.31
2019-03-27T14:46:48.876Z,101376.63
2019-03-27T14:49:20.236Z,101373.93
2019-03-27T14:53:44.525Z,101373.93
2019-03-27T14:55:54.216Z,101381.27
2019-03-27T14:58:37.899Z,101376.25
2019-03-27T15:04:48.009Z,101384.59
2019-03-27T15:07:31.105Z,101379.17
2019-03-27T15:10:12.623Z,101384.67
2019-03-27T15:16:12.525Z,101378.65
2019-03-27T15:19:23.552Z,101377.27
2019-03-27T15:22:43.004Z,101380.14
2019-03-27T15:25:42.417Z,101380.78
2019-03-27T15:28:28.911Z,101377.52
2019-03-27T15:31:24.427Z,101377.59
2019-03-27T15:34:22.435Z,101379.78
2019-03-27T15:37:09.251Z,101379.43
2019-03-27T15:39:53.452Z,101377.52
2019-03-27T15:43:17.892Z,101371.78
2019-03-27T15:45:53.302Z,101373.48
2019-03-27T15:48:33.011Z,101375.36
2019-03-27T15:51:10.123Z,101374.53
2019-03-27T15:53:41.254Z,101371.16
2019-03-27T15:56:16.248Z,101367.98
2019-03-27T15:58:50.152Z,101377.78
2019-03-27T16:01:31.388Z,101371.12
2019-03-27T16:04:05.226Z,101366.85
2019-03-27T16:06:40.094Z,101367.05
2019-03-27T16:09:17.688Z,101368.84
2019-03-27T16:12:17.492Z,101367.70
2019-03-27T16:15:00.364Z,101373.53
2019-03-27T16:17:57.419Z,101370.22
2019-03-27T16:20:32.012Z,101377.34
2019-03-27T16:23:11.260Z,101380.27
2019-03-27T16:25:43.141Z,101368.34
2019-03-27T16:28:23.163Z,101369.55
2019-03-27T16:30:56.643Z,101366.73
2019-03-27T16:33:30.187Z,101367.58
2019-03-27T16:36:09.337Z,101367.89
2019-03-27T16:38:44.531Z,101365.55
2019-03-27T16:41:42.013Z,101370.61
2019-03-27T16:44:15.342Z,101367.34
2019-03-27T16:46:46.796Z,101361.84
2019-03-27T16:49:20.875Z,101358.15
2019-03-27T16:51:56.271Z,101366.17
2019-03-27T16:54:33.375Z,101374.05
2019-03-27T16:57:04.258Z,101376.97
2019-03-27T16:59:40.163Z,101374.50
2019-03-27T17:02:12.558Z,101373.70
2019-03-27T17:04:50.328Z,101378.72
2019-03-27T17:07:23.511Z,101373.95
2019-03-27T17:09:56.129Z,101374.95
2019-03-27T17:12:31.445Z,101376.80
2019-03-27T17:15:14.843Z,101376.58
2019-03-27T17:17:57.382Z,101378.89
2019-03-27T17:20:30.842Z,101386.13
2019-03-27T17:23:01.898Z,101391.84
2019-03-27T17:25:39.975Z,101399.48
2019-03-27T17:28:13.655Z,101406.73
2019-03-27T17:31:07.027Z,101408.58
2019-03-27T17:33:38.620Z,101411.47
2019-03-27T17:36:09.252Z,101409.13
2019-03-27T17:39:31.229Z,101413.08
2019-03-27T17:41:53.950Z,101418.33
2019-03-27T17:44:37.105Z,101419.72
2019-03-27T17:47:24.245Z,101415.84
2019-03-27T17:50:00.561Z,101415.98
2019-03-27T17:52:31.105Z,101412.91
2019-03-27T17:55:13.247Z,101420.84
2019-03-27T17:57:56.796Z,101422.67
2019-03-27T18:01:04.183Z,101432.38
2019-03-27T18:03:42.902Z,101427.44
2019-03-27T18:06:14.307Z,101431.22
2019-03-27T18:08:52.716Z,101425.30
2019-03-27T18:11:24.133Z,101427.77
2019-03-27T18:14:13.623Z,101428.80
2019-03-27T18:16:50.979Z,101428.66
2019-03-27T18:19:33.664Z,101433.95
2019-03-27T18:22:12.344Z,101431.36
2019-03-27T18:25:03.704Z,101427.28
2019-03-27T18:27:34.411Z,101419.76
2019-03-27T18:30:08.980Z,101435.34
2019-03-27T18:32:44.701Z,101431.41
2019-03-27T18:35:54.605Z,101436.66
2019-03-27T18:38:26.871Z,101441.22
2019-03-27T18:41:15.936Z,101440.34
2019-03-27T18:44:12.643Z,101448.69
2019-03-27T18:46:50.968Z,101444.77
2019-03-27T18:49:28.366Z,101439.59
2019-03-27T18:52:02.776Z,101447.28
2019-03-27T18:54:45.154Z,101463.20
2019-03-27T18:57:27.186Z,101458.89
2019-03-27T18:59:59.271Z,101451.14
2019-03-27T19:02:48.261Z,101450.66
2019-03-27T19:05:29.385Z,101452.39
2019-03-27T19:08:03.625Z,101454.77
2019-03-27T19:10:50.115Z,101458.33
2019-03-27T19:13:25.707Z,101459.30
2019-03-27T19:16:06.134Z,101460.53
2019-03-27T19:18:40.592Z,101461.50
2019-03-27T19:21:27.638Z,101466.91
2019-03-27T19:24:16.307Z,101467.36
2019-03-27T19:27:20.487Z,101466.91
2019-03-27T19:30:07.858Z,101479.45
2019-03-27T19:32:49.059Z,101479.48
2019-03-27T19:35:22.932Z,101482.78
2019-03-27T19:37:59.252Z,101482.21
2019-03-27T19:40:36.308Z,101476.45
2019-03-27T19:43:27.139Z,101478.84
2019-03-27T19:46:18.212Z,101475.06
2019-03-27T19:49:01.476Z,101470.81
2019-03-27T19:51:36.172Z,101473.77
2019-03-27T19:54:27.067Z,101469.14
2019-03-27T19:56:48.114Z,101468.08
2019-03-27T19:59:47.028Z,101464.19
2019-03-27T20:02:17.392Z,101464.19
2019-03-27T20:04:55.146Z,101464.63
2019-03-27T20:07:35.966Z,101464.14
2019-03-27T20:10:03.709Z,101466.33
2019-03-27T20:12:49.884Z,101468.36
2019-03-27T20:15:59.664Z,101470.97
2019-03-27T20:18:49.216Z,101477.80
2019-03-27T20:21:44.156Z,101480.20
2019-03-27T20:24:45.098Z,101488.31
2019-03-27T20:30:14.340Z,101478.02
2019-03-27T20:33:01.401Z,101480.23
2019-03-27T20:35:51.668Z,101480.98
2019-03-27T20:38:32.814Z,101478.06
2019-03-27T20:41:07.633Z,101478.06
2019-03-27T20:43:40.363Z,101482.23
2019-03-27T20:46:29.155Z,101482.13
2019-03-27T20:48:56.553Z,101480.22
2019-03-27T20:51:35.576Z,101477.55
2019-03-27T20:54:13.269Z,101482.83
2019-03-27T20:56:54.675Z,101485.77
2019-03-27T20:59:29.448Z,101482.66
2019-03-27T21:09:48.135Z,101483.17
2019-03-27T21:13:22.787Z,101483.17
2019-03-27T21:17:25.338Z,101494.34
2019-03-27T21:21:16.300Z,101494.34
2019-03-27T21:27:35.545Z,101487.55
2019-03-27T21:33:51.315Z,101494.14
2019-03-27T21:36:26.889Z,101490.69
2019-03-27T21:39:15.922Z,101490.69
2019-03-27T21:41:50.907Z,101489.14
2019-03-27T21:44:30.530Z,101496.41
2019-03-27T21:47:04.552Z,101499.48
2019-03-27T21:49:37.622Z,101504.27
2019-03-27T21:52:14.577Z,101503.92
2019-03-27T21:54:46.495Z,101503.28
2019-03-27T21:57:29.584Z,101507.51
2019-03-27T22:00:01.161Z,101486.97
2019-03-27T22:02:37.212Z,101500.06
2019-03-27T22:05:12.239Z,101508.84
2019-03-27T22:08:29.459Z,101509.84
2019-03-27T22:14:38.793Z,101513.06
2019-03-27T22:17:18.207Z,101511.03
2019-03-27T22:20:05.084Z,101515.69
2019-03-27T22:22:42.017Z,101512.39
2019-03-27T22:25:35.247Z,101517.62
2019-03-27T22:27:57.267Z,101513.24
2019-03-27T22:30:33.326Z,101521.39
2019-03-27T22:33:15.843Z,101519.69
2019-03-27T22:35:53.435Z,101522.86
2019-03-27T22:38:34.961Z,101527.84
2019-03-27T22:41:21.054Z,101530.41
2019-03-27T22:43:55.701Z,101529.53
2019-03-27T22:46:27.663Z,101543.52
2019-03-27T22:49:02.749Z,101536.95
2019-03-27T22:51:39.564Z,101535.61
2019-03-27T22:54:10.867Z,101531.13
2019-03-27T22:56:41.701Z,101537.84
2019-03-27T22:59:16.725Z,101548.66
2019-03-27T23:02:03.559Z,101537.17
2019-03-27T23:04:39.103Z,101537.83
2019-03-27T23:07:21.418Z,101531.03
2019-03-27T23:09:58.857Z,101539.41
2019-03-27T23:12:33.135Z,101546.89
2019-03-27T23:15:21.937Z,101531.13
2019-03-27T23:18:03.221Z,101546.77
2019-03-27T23:20:38.184Z,101543.62
2019-03-27T23:23:20.830Z,101543.50
2019-03-27T23:26:02.855Z,101534.76
2019-03-27T23:28:38.022Z,101540.34
2019-03-27T23:31:16.470Z,101536.07
2019-03-27T23:33:50.728Z,101539.02
2019-03-27T23:36:26.909Z,101547.12
2019-03-27T23:39:01.995Z,101542.41
2019-03-27T23:41:34.318Z,101542.66
2019-03-27T23:44:10.026Z,101540.58
2019-03-27T23:46:43.896Z,101549.20
2019-03-27T23:49:39.431Z,101537.33
2019-03-27T23:52:12.042Z,101530.05
2019-03-27T23:54:48.325Z,101530.91
2019-03-27T23:57:35.264Z,101531.41
